Pagrindinis puslapis
METAR-TAF:

METAR-TAF

Oro uostai :

Algeras, Italija

platuma: 40-38N, ilguma: 008-17E, Aukštis: 23 m

Dabartinis oras

Ataskaita buvo paskelbta 21 minutes, ne 19:20 UTC
Vėjas 6 kt iš Šiaurės/Šiaurės Rytų
Temperatūra 18°C
Drėgmė 59%
Slėgis 1014 hPa
Matomumas 10 km arba daugiau
nėra debesų žemiau 1500 m ir nėra kamuolinių lietaus debesų

METAR: LIEA 301920Z 02006KT CAVOK 18/10 Q1014

Laikas: 21:41 (19:41 UTC)

Prognozė

Ataskaita buvo paskelbta 2 valandos ir 41 minutes, ne 17:00 UTC
Prognozė galioja nuo 30 metu 18 UTC su 31 metu 18 UTC
Vėjas 12 kt iš Šiaurės/Šiaurės Rytų
Matomumas 10 km arba daugiau
nėra debesų žemiau 1500 m ir nėra kamuolinių lietaus debesų
Tapsmas
nuo 30 metu 20 UTC su 30 metu 22 UTC
Vėjas 6 kt nuo kintamojo kryptimis
Tapsmas
nuo 31 metu 10 UTC su 31 metu 12 UTC
Vėjas 10 kt iš Šiaurės

TAF: LIEA 301700Z 3018/3118 02012KT CAVOK BECMG 3020/3022 VRB06KT BECMG 3110/3112 01010KT

Orai ataskaitas ir orų prognozės (METAR, TAF).

turimą stotys yra geltonos ir raudonos taškus žemėlapyje.

Perkelti pele per norėdami pamatyti stoties vardą.

Tada spustelėkite, norėdami matyti oro stebėjimo ir prognozės.

Norėdami pakeisti žemėlapį: spustelėkite ant žalios mygtukų su juodo kryžiaus žemyn,; žalią mygtuką su brūkšneliu, jei norite nutolinti; arba žalių rodyklių gretimoms žemėlapius.


METAR-TAF: